Time;durP1;ratioP1;P1;durP2;ratioP2;P2;SDS_P1;SDS_P2;PMS_P1;PMS_P2;Temp;Humidity;BMP_temperature;BMP_pressure;BME280_temperature;BME280_humidity;BME280_pressure;Samples;Min_cycle;Max_cycle;Signal;HPM_P1;HPM_P2
2022/10/13 00:00:08;;;;;;;;;;;14.00;99.90;14.20;100113.00;;;;345800;28;83405;-94
2022/10/13 00:00:20;;;;;;;;;;;14.00;99.90;14.20;100115.00;;;;342857;28;91615;-94
2022/10/13 00:00:32;;;;;;;;;;;14.00;99.90;14.20;100123.00;;;;344545;28;83488;-94
2022/10/13 00:00:44;;;;;;;;;;;14.00;99.90;14.20;100111.00;;;;345457;28;91199;-95
2022/10/13 00:00:56;;;;;;;;;;;14.00;99.90;14.20;100117.00;;;;341818;28;82473;-94
2022/10/13 00:01:13;;;;;;;;;;;14.00;99.90;14.30;100119.00;;;;342884;28;90343;-94
2022/10/13 00:01:25;;;;;;;;;;;14.00;99.90;14.30;100117.00;;;;344552;28;83384;-94
2022/10/13 00:01:37;;;;;;;;;;;14.00;99.90;14.20;100115.00;;;;335934;28;90831;-94
2022/10/13 00:01:48;;;;;;;;;;;14.00;99.90;14.30;100123.00;;;;337768;28;82485;-94
2022/10/13 00:02:00;;;;;;;;;;;14.00;99.90;14.30;100109.00;;;;343969;28;91826;-94
2022/10/13 00:02:12;;;;;;;;;;;14.00;99.90;14.30;100123.00;;;;343222;28;83514;-94
2022/10/13 00:02:24;;;;;;;;;;;14.00;99.90;14.20;100114.00;;;;342591;28;89030;-94
2022/10/13 00:02:35;;;;;;;;;;;14.00;99.90;14.20;100123.00;;;;343171;28;82489;-94
2022/10/13 00:02:47;;;;;;;;;;;14.00;99.90;14.20;100117.00;;;;344113;28;90599;-94
2022/10/13 00:03:00;;;;;;;;;;;14.00;99.90;14.20;100128.00;;;;343180;28;82447;-94
2022/10/13 00:03:12;;;;;;;;;;;14.00;99.90;14.20;100117.00;;;;337353;28;90635;-94
2022/10/13 00:03:24;;;;;;;;;;;14.00;99.90;14.30;100124.00;;;;337065;28;83591;-94
2022/10/13 00:03:37;;;;;;;;;;;14.00;99.90;14.30;100115.00;;;;346850;28;90226;-94
2022/10/13 00:03:49;;;;;;;;;;;14.00;99.90;14.30;100114.00;;;;346005;28;83317;-95
2022/10/13 00:04:01;;;;;;;;;;;14.00;99.90;14.40;100116.00;;;;343649;28;92065;-95
2022/10/13 00:04:13;;;;;;;;;;;14.00;99.90;14.30;100129.00;;;;343275;28;82604;-95
2022/10/13 00:04:26;;;;;;;;;;;14.00;99.90;14.30;100118.00;;;;344068;28;90241;-94
2022/10/13 00:04:38;;;;;;;;;;;14.10;99.90;14.30;100122.00;;;;344582;28;83404;-95
2022/10/13 00:04:50;;;;;;;;;;;14.10;99.90;14.30;100123.00;;;;341294;28;91886;-94
2022/10/13 00:05:02;;;;;;;;;;;14.10;99.90;14.30;100121.00;;;;344593;28;83348;-94
2022/10/13 00:05:14;;;;;;;;;;;14.00;99.90;14.30;100117.00;;;;345492;28;91765;-94
2022/10/13 00:05:26;;;;;;;;;;;14.00;99.90;14.30;100121.00;;;;344487;28;83399;-94
2022/10/13 00:05:47;;;;;;;;;;;14.00;99.90;14.40;100125.00;;;;344101;28;91655;-94
2022/10/13 00:05:58;;;;;;;;;;;14.00;99.90;14.40;100116.00;;;;343126;28;82421;-94
2022/10/13 00:06:10;;;;;;;;;;;14.10;99.90;14.50;100116.00;;;;342679;28;91766;-94
2022/10/13 00:06:23;;;;;;;;;;;14.00;99.90;14.40;100123.00;;;;343142;28;82476;-94
2022/10/13 00:06:35;;;;;;;;;;;14.10;99.90;14.40;100124.00;;;;342780;28;90897;-95
2022/10/13 00:06:47;;;;;;;;;;;14.10;99.90;14.40;100119.00;;;;345874;28;83463;-94
2022/10/13 00:06:59;;;;;;;;;;;14.10;99.90;14.40;100115.00;;;;345468;28;92197;-94
2022/10/13 00:07:10;;;;;;;;;;;14.00;99.90;14.40;100122.00;;;;343272;28;82408;-94
2022/10/13 00:07:22;;;;;;;;;;;14.00;99.90;14.40;100118.00;;;;344039;28;90128;-95
2022/10/13 00:07:34;;;;;;;;;;;14.00;99.90;14.40;100127.00;;;;344639;28;83518;-95
2022/10/13 00:07:46;;;;;;;;;;;14.00;99.90;14.40;100121.00;;;;341426;28;91475;-94
2022/10/13 00:07:57;;;;;;;;;;;14.10;99.90;14.40;100124.00;;;;345952;28;82458;-94
2022/10/13 00:08:10;;;;;;;;;;;14.10;99.90;14.40;100118.00;;;;342498;28;92304;-94
2022/10/13 00:08:24;;;;;;;;;;;14.00;99.90;14.30;100125.00;;;;343122;28;83478;-94
2022/10/13 00:08:37;;;;;;;;;;;14.00;99.90;14.30;100124.00;;;;345192;28;90272;-95
2022/10/13 00:08:49;;;;;;;;;;;14.10;99.90;14.30;100119.00;;;;341863;28;83451;-95
2022/10/13 00:09:00;;;;;;;;;;;14.10;99.90;14.30;100126.00;;;;344201;28;90776;-94
2022/10/13 00:09:12;;;;;;;;;;;14.10;99.90;14.30;100115.00;;;;344433;28;82576;-95
2022/10/13 00:09:24;;;;;;;;;;;14.10;99.90;14.30;100121.00;;;;344163;28;91159;-94
2022/10/13 00:09:36;;;;;;;;;;;14.10;99.90;14.30;100121.00;;;;344492;28;83458;-94
2022/10/13 00:09:48;;;;;;;;;;;14.00;99.90;14.30;100110.00;;;;342770;28;91371;-94
2022/10/13 00:09:59;;;;;;;;;;;14.00;99.90;14.30;100110.00;;;;345838;28;83818;-94
2022/10/13 00:10:11;;;;;;;;;;;14.10;99.90;14.40;100118.00;;;;344048;28;92277;-94
2022/10/13 00:10:23;;;;;;;;;;;14.10;99.90;14.40;100123.00;;;;345880;28;83434;-95
2022/10/13 00:10:36;;;;;;;;;;;14.00;99.90;14.40;100116.00;;;;345448;28;90816;-94
2022/10/13 00:10:49;;;;;;;;;;;14.10;99.90;14.50;100116.00;;;;343182;28;83394;-94
2022/10/13 00:11:07;;;;;;;;;;;14.10;99.90;14.40;100112.00;;;;346843;28;91283;-95
2022/10/13 00:11:23;;;;;;;;;;;14.10;99.90;14.50;100117.00;;;;345755;28;83454;-94
2022/10/13 00:11:35;;;;;;;;;;;14.10;99.90;14.50;100116.00;;;;344107;28;90918;-94
2022/10/13 00:11:47;;;;;;;;;;;14.10;99.90;14.50;100115.00;;;;347308;28;83516;-94
2022/10/13 00:11:59;;;;;;;;;;;14.10;99.90;14.50;100118.00;;;;343918;28;90368;-94
2022/10/13 00:12:10;;;;;;;;;;;14.10;99.90;14.40;100116.00;;;;344480;28;82640;-95
2022/10/13 00:12:22;;;;;;;;;;;14.10;99.90;14.50;100114.00;;;;346556;28;92166;-94
2022/10/13 00:12:35;;;;;;;;;;;14.10;99.90;14.60;100120.00;;;;344420;28;83431;-94
2022/10/13 00:12:46;;;;;;;;;;;14.10;99.90;14.50;100118.00;;;;346620;28;91580;-94
2022/10/13 00:12:58;;;;;;;;;;;14.10;99.90;14.60;100112.00;;;;347118;28;83410;-94
2022/10/13 00:13:10;;;;;;;;;;;14.10;99.90;14.60;100120.00;;;;342944;28;91338;-95
2022/10/13 00:13:22;;;;;;;;;;;14.10;99.90;14.50;100114.00;;;;348412;27;82678;-94
2022/10/13 00:13:33;;;;;;;;;;;14.10;99.90;14.40;100120.00;;;;345380;27;90599;-94
2022/10/13 00:13:45;;;;;;;;;;;14.10;99.90;14.40;100119.00;;;;344157;28;82579;-94
2022/10/13 00:13:59;;;;;;;;;;;14.10;99.90;14.30;100119.00;;;;345575;28;90570;-95
2022/10/13 00:14:11;;;;;;;;;;;14.20;99.90;14.20;100111.00;;;;345946;28;82497;-94
2022/10/13 00:14:23;;;;;;;;;;;14.10;99.90;14.20;100112.00;;;;343911;28;91400;-95
2022/10/13 00:14:35;;;;;;;;;;;14.10;99.90;14.40;100113.00;;;;344638;28;82425;-94
2022/10/13 00:14:46;;;;;;;;;;;14.10;99.90;14.50;100114.00;;;;346750;28;90481;-94
2022/10/13 00:14:58;;;;;;;;;;;14.10;99.90;14.50;100116.00;;;;347358;28;83342;-94
2022/10/13 00:15:10;;;;;;;;;;;14.20;99.90;14.40;100120.00;;;;346480;28;90312;-94
2022/10/13 00:15:24;;;;;;;;;;;14.10;99.90;14.40;100113.00;;;;344115;28;83621;-94
2022/10/13 00:15:40;;;;;;;;;;;14.10;99.90;14.40;100114.00;;;;342710;28;91197;-95
2022/10/13 00:15:52;;;;;;;;;;;14.10;99.90;14.30;100110.00;;;;343145;28;82516;-94
2022/10/13 00:16:04;;;;;;;;;;;14.10;99.90;14.20;100115.00;;;;345477;28;91909;-94
2022/10/13 00:16:17;;;;;;;;;;;14.10;99.90;14.20;100114.00;;;;345942;28;82458;-94
2022/10/13 00:16:29;;;;;;;;;;;14.20;99.90;14.20;100120.00;;;;342272;28;90470;-95
2022/10/13 00:16:41;;;;;;;;;;;14.10;99.90;14.20;100113.00;;;;344451;28;82617;-94
2022/10/13 00:16:53;;;;;;;;;;;14.10;99.90;14.10;100121.00;;;;342928;28;91596;-94
2022/10/13 00:17:04;;;;;;;;;;;14.10;99.90;14.10;100117.00;;;;339312;28;83409;-94
2022/10/13 00:17:16;;;;;;;;;;;14.10;99.90;14.10;100122.00;;;;341297;27;90691;-94
2022/10/13 00:17:28;;;;;;;;;;;14.10;99.90;14.10;100120.00;;;;346115;28;82557;-94
2022/10/13 00:17:40;;;;;;;;;;;14.10;99.90;14.20;100119.00;;;;347056;28;91300;-94
2022/10/13 00:17:52;;;;;;;;;;;14.10;99.90;14.20;100120.00;;;;346127;28;82469;-95
2022/10/13 00:18:04;;;;;;;;;;;14.10;99.90;14.10;100111.00;;;;345475;28;90188;-94
2022/10/13 00:18:16;;;;;;;;;;;14.00;99.90;14.10;100121.00;;;;345805;28;82514;-94
2022/10/13 00:18:28;;;;;;;;;;;14.00;99.90;14.20;100114.00;;;;344277;28;91362;-94
2022/10/13 00:18:39;;;;;;;;;;;14.10;99.90;14.30;100123.00;;;;343341;28;83855;-94
2022/10/13 00:18:51;;;;;;;;;;;14.00;99.90;14.20;100114.00;;;;345676;28;90291;-95
2022/10/13 00:19:03;;;;;;;;;;;14.10;99.90;14.20;100124.00;;;;346004;28;83605;-95
2022/10/13 00:19:15;;;;;;;;;;;14.10;99.90;14.20;100125.00;;;;344335;28;91314;-94
2022/10/13 00:19:28;;;;;;;;;;;14.00;99.90;14.20;100117.00;;;;341943;28;83417;-94
2022/10/13 00:19:40;;;;;;;;;;;14.00;99.90;14.20;100124.00;;;;344322;28;90150;-94
2022/10/13 00:19:51;;;;;;;;;;;14.00;99.90;14.10;100124.00;;;;346199;28;83448;-94
2022/10/13 00:20:04;;;;;;;;;;;14.00;99.90;14.10;100121.00;;;;342731;28;91475;-94
2022/10/13 00:20:16;;;;;;;;;;;14.00;99.90;14.10;100123.00;;;;346198;28;82458;-94
2022/10/13 00:20:28;;;;;;;;;;;14.00;99.90;14.10;100116.00;;;;345583;28;92873;-94
2022/10/13 00:20:41;;;;;;;;;;;14.00;99.90;14.10;100129.00;;;;341787;28;83508;-94
2022/10/13 00:20:53;;;;;;;;;;;14.00;99.90;14.00;100122.00;;;;346949;28;91499;-95
2022/10/13 00:21:07;;;;;;;;;;;14.00;99.90;14.00;100131.00;;;;344841;28;82633;-95
2022/10/13 00:21:21;;;;;;;;;;;14.00;99.90;14.00;100126.00;;;;342636;28;91920;-95
2022/10/13 00:21:32;;;;;;;;;;;14.00;99.90;14.00;100132.00;;;;344795;28;82510;-94
2022/10/13 00:21:44;;;;;;;;;;;14.00;99.90;14.00;100130.00;;;;344271;28;91621;-95
2022/10/13 00:21:56;;;;;;;;;;;14.00;99.90;14.00;100133.00;;;;344679;28;82607;-94
2022/10/13 00:22:08;;;;;;;;;;;13.90;99.90;14.00;100126.00;;;;344130;28;90892;-94
2022/10/13 00:22:20;;;;;;;;;;;13.90;99.90;14.00;100135.00;;;;343429;28;83759;-95
2022/10/13 00:22:32;;;;;;;;;;;13.90;99.90;14.00;100126.00;;;;345776;28;93010;-94
2022/10/13 00:22:44;;;;;;;;;;;13.90;99.90;13.90;100124.00;;;;343185;28;83427;-95
2022/10/13 00:22:56;;;;;;;;;;;13.90;99.90;13.90;100136.00;;;;342749;28;91438;-95
2022/10/13 00:23:07;;;;;;;;;;;13.90;99.90;14.00;100128.00;;;;344770;28;83464;-95
2022/10/13 00:23:19;;;;;;;;;;;13.90;99.90;14.00;100129.00;;;;344195;28;89496;-94
2022/10/13 00:23:32;;;;;;;;;;;13.90;99.90;14.00;100128.00;;;;346002;28;83590;-94
2022/10/13 00:23:45;;;;;;;;;;;13.90;99.90;14.00;100128.00;;;;344167;28;90328;-95
2022/10/13 00:23:57;;;;;;;;;;;13.90;99.90;14.00;100126.00;;;;347436;28;82378;-94
2022/10/13 00:24:10;;;;;;;;;;;13.90;99.90;14.00;100125.00;;;;347201;28;89798;-94
2022/10/13 00:24:21;;;;;;;;;;;13.90;99.90;14.10;100125.00;;;;346071;28;83407;-94
2022/10/13 00:24:33;;;;;;;;;;;13.90;99.90;14.10;100121.00;;;;347098;28;91077;-94
2022/10/13 00:24:49;;;;;;;;;;;13.90;99.90;14.10;100126.00;;;;343462;28;82559;-94
2022/10/13 00:25:02;;;;;;;;;;;13.90;99.90;14.10;100126.00;;;;344400;28;91543;-95
2022/10/13 00:25:14;;;;;;;;;;;13.90;99.90;14.10;100129.00;;;;344806;28;83302;-94
2022/10/13 00:25:26;;;;;;;;;;;13.90;99.90;14.10;100130.00;;;;344318;28;90524;-94
2022/10/13 00:25:42;;;;;;;;;;;13.90;99.90;14.10;100121.00;;;;344677;28;83365;-94
2022/10/13 00:25:53;;;;;;;;;;;13.90;99.90;14.10;100124.00;;;;344394;28;90275;-95
2022/10/13 00:26:07;;;;;;;;;;;13.90;99.90;14.10;100127.00;;;;346158;28;83362;-94
2022/10/13 00:26:20;;;;;;;;;;;13.90;99.90;14.20;100128.00;;;;342651;28;90594;-95
2022/10/13 00:26:31;;;;;;;;;;;13.90;99.90;14.20;100130.00;;;;346088;28;83359;-94
2022/10/13 00:26:43;;;;;;;;;;;13.90;99.90;14.20;100123.00;;;;346934;27;91182;-94
2022/10/13 00:26:55;;;;;;;;;;;13.90;99.90;14.20;100127.00;;;;343452;28;83369;-95
2022/10/13 00:27:06;;;;;;;;;;;13.90;99.90;14.10;100126.00;;;;344289;28;91874;-95
2022/10/13 00:27:18;;;;;;;;;;;13.90;99.90;14.20;100124.00;;;;344587;28;83521;-95
2022/10/13 00:27:30;;;;;;;;;;;13.90;99.90;14.20;100124.00;;;;345491;28;90301;-94
2022/10/13 00:27:42;;;;;;;;;;;13.90;99.90;14.20;100119.00;;;;345893;28;83266;-94
2022/10/13 00:27:53;;;;;;;;;;;13.90;99.90;14.20;100125.00;;;;346709;28;90319;-95
2022/10/13 00:28:05;;;;;;;;;;;13.90;99.90;14.20;100121.00;;;;344813;28;82501;-95
2022/10/13 00:28:18;;;;;;;;;;;13.90;99.90;14.20;100121.00;;;;347034;28;90814;-95
2022/10/13 00:28:30;;;;;;;;;;;13.90;99.90;14.10;100130.00;;;;343527;28;83362;-94
2022/10/13 00:28:41;;;;;;;;;;;13.90;99.90;14.20;100126.00;;;;344210;28;92286;-95
2022/10/13 00:28:54;;;;;;;;;;;13.90;99.90;14.20;100129.00;;;;348760;27;83423;-94
2022/10/13 00:29:06;;;;;;;;;;;13.90;99.90;14.20;100118.00;;;;344513;28;87720;-94
2022/10/13 00:29:18;;;;;;;;;;;13.90;99.90;14.10;100124.00;;;;347327;27;83388;-94
2022/10/13 00:29:30;;;;;;;;;;;13.90;99.90;14.20;100128.00;;;;345634;28;91173;-94
2022/10/13 00:29:41;;;;;;;;;;;13.90;99.90;14.10;100130.00;;;;344753;28;82583;-94
2022/10/13 00:29:53;;;;;;;;;;;13.90;99.90;14.10;100127.00;;;;345646;28;91658;-94
2022/10/13 00:30:05;;;;;;;;;;;13.90;99.90;14.10;100125.00;;;;346096;28;83542;-94
2022/10/13 00:30:17;;;;;;;;;;;13.90;99.90;14.20;100122.00;;;;343017;28;90538;-94
2022/10/13 00:30:33;;;;;;;;;;;13.90;99.90;14.20;100123.00;;;;344907;28;82549;-95
2022/10/13 00:30:45;;;;;;;;;;;13.90;99.90;14.10;100123.00;;;;344126;28;90195;-94
2022/10/13 00:30:57;;;;;;;;;;;13.90;99.90;14.10;100130.00;;;;343334;28;83518;-94
2022/10/13 00:31:25;;;;;;;;;;;13.90;99.90;14.10;100132.00;;;;345703;28;91339;-94
2022/10/13 00:31:37;;;;;;;;;;;13.90;99.90;14.20;100130.00;;;;343369;28;82590;-95
2022/10/13 00:31:49;;;;;;;;;;;13.90;99.90;14.20;100136.00;;;;342763;28;89652;-95
2022/10/13 00:32:01;;;;;;;;;;;13.90;99.90;14.20;100128.00;;;;344521;28;83526;-94
2022/10/13 00:32:13;;;;;;;;;;;13.90;99.90;14.20;100128.00;;;;345700;28;90223;-94
2022/10/13 00:32:24;;;;;;;;;;;13.90;99.90;14.20;100133.00;;;;344734;28;82558;-94
2022/10/13 00:32:36;;;;;;;;;;;13.90;99.90;14.20;100127.00;;;;343893;28;90208;-95
2022/10/13 00:32:48;;;;;;;;;;;13.90;99.90;14.20;100128.00;;;;343301;28;83422;-94
2022/10/13 00:32:59;;;;;;;;;;;13.90;99.90;14.20;100135.00;;;;344263;28;92734;-94
2022/10/13 00:33:11;;;;;;;;;;;13.90;99.90;14.20;100125.00;;;;346109;28;83493;-94
2022/10/13 00:33:23;;;;;;;;;;;13.90;99.90;14.20;100124.00;;;;346861;28;90295;-95
2022/10/13 00:33:35;;;;;;;;;;;13.90;99.90;14.10;100127.00;;;;344635;28;83473;-94
2022/10/13 00:33:48;;;;;;;;;;;13.90;99.90;14.10;100129.00;;;;345459;28;91355;-94
2022/10/13 00:34:00;;;;;;;;;;;13.90;99.90;14.10;100123.00;;;;347419;28;83955;-95
2022/10/13 00:34:11;;;;;;;;;;;13.90;99.90;14.10;100130.00;;;;345546;28;91389;-94
2022/10/13 00:34:23;;;;;;;;;;;13.90;99.90;14.10;100126.00;;;;343422;28;82508;-94
2022/10/13 00:34:38;;;;;;;;;;;13.90;99.90;14.10;100137.00;;;;344173;28;91720;-94
2022/10/13 00:34:50;;;;;;;;;;;13.80;99.90;14.00;100135.00;;;;344573;28;82594;-94
2022/10/13 00:35:01;;;;;;;;;;;13.80;99.90;14.00;100135.00;;;;343915;28;91575;-94
2022/10/13 00:35:13;;;;;;;;;;;13.90;99.90;14.00;100126.00;;;;346011;28;83472;-94
2022/10/13 00:35:25;;;;;;;;;;;13.90;99.90;14.00;100124.00;;;;346733;28;91339;-94
2022/10/13 00:35:44;;;;;;;;;;;13.90;99.90;14.00;100129.00;;;;345927;28;83566;-95
2022/10/13 00:35:56;;;;;;;;;;;13.90;99.90;14.00;100126.00;;;;344114;28;90114;-95
2022/10/13 00:36:07;;;;;;;;;;;13.80;99.90;14.00;100126.00;;;;344846;28;83572;-95
2022/10/13 00:36:20;;;;;;;;;;;13.90;99.90;14.00;100127.00;;;;340221;28;91103;-95
2022/10/13 00:36:32;;;;;;;;;;;13.80;99.90;14.00;100126.00;;;;343384;28;83470;-94
2022/10/13 00:36:44;;;;;;;;;;;13.80;99.90;14.10;100124.00;;;;345505;28;91111;-94
2022/10/13 00:36:56;;;;;;;;;;;13.80;99.90;14.00;100126.00;;;;346055;28;83442;-94
2022/10/13 00:37:08;;;;;;;;;;;13.80;99.90;14.10;100126.00;;;;344276;28;92141;-94
2022/10/13 00:37:19;;;;;;;;;;;13.80;99.90;14.20;100116.00;;;;343124;28;83552;-94
2022/10/13 00:37:31;;;;;;;;;;;13.80;99.90;14.30;100126.00;;;;344924;28;90167;-94
2022/10/13 00:37:43;;;;;;;;;;;13.80;99.90;14.30;100120.00;;;;347442;28;83532;-95
2022/10/13 00:37:55;;;;;;;;;;;13.90;99.90;14.20;100122.00;;;;345688;28;90827;-95
2022/10/13 00:38:06;;;;;;;;;;;13.90;99.90;14.20;100127.00;;;;343380;28;83535;-94
2022/10/13 00:38:19;;;;;;;;;;;13.90;99.90;14.10;100128.00;;;;345562;28;90866;-94
2022/10/13 00:38:31;;;;;;;;;;;13.90;99.90;14.10;100124.00;;;;348940;27;83389;-94
2022/10/13 00:38:43;;;;;;;;;;;13.90;99.90;14.10;100126.00;;;;345729;28;90583;-94
2022/10/13 00:38:55;;;;;;;;;;;13.80;99.90;14.10;100125.00;;;;345970;28;83042;-94
2022/10/13 00:39:07;;;;;;;;;;;13.80;99.90;14.20;100124.00;;;;344282;28;91959;-93
2022/10/13 00:39:18;;;;;;;;;;;13.90;99.90;14.20;100126.00;;;;347485;28;83430;-94
2022/10/13 00:39:30;;;;;;;;;;;13.90;99.90;14.10;100121.00;;;;345567;28;91624;-94
2022/10/13 00:39:42;;;;;;;;;;;13.90;99.90;14.10;100128.00;;;;346096;28;83395;-94
2022/10/13 00:39:54;;;;;;;;;;;13.80;99.90;14.00;100124.00;;;;345520;28;90434;-94
2022/10/13 00:40:07;;;;;;;;;;;13.90;99.90;14.00;100126.00;;;;347578;28;83531;-94
2022/10/13 00:40:19;;;;;;;;;;;13.90;99.90;14.00;100129.00;;;;345659;28;87667;-94
2022/10/13 00:40:30;;;;;;;;;;;13.90;99.90;14.00;100133.00;;;;343464;28;83390;-94
2022/10/13 00:40:46;;;;;;;;;;;13.80;99.90;14.00;100130.00;;;;345659;28;91838;-94
2022/10/13 00:40:58;;;;;;;;;;;13.90;99.90;14.00;100135.00;;;;343326;28;83324;-94
2022/10/13 00:41:10;;;;;;;;;;;13.90;99.90;14.10;100133.00;;;;347012;28;90956;-94
2022/10/13 00:41:22;;;;;;;;;;;13.80;99.90;14.10;100124.00;;;;346014;28;83587;-94
2022/10/13 00:41:34;;;;;;;;;;;13.80;99.90;14.10;100126.00;;;;344287;28;90573;-93
2022/10/13 00:41:45;;;;;;;;;;;13.90;99.90;14.10;100133.00;;;;347368;28;83392;-94
2022/10/13 00:41:58;;;;;;;;;;;13.80;99.90;14.10;100136.00;;;;345562;28;89313;-94
2022/10/13 00:42:11;;;;;;;;;;;13.80;99.90;14.10;100138.00;;;;346247;28;83410;-94
2022/10/13 00:42:25;;;;;;;;;;;13.80;99.90;14.00;100133.00;;;;345660;28;90138;-94
2022/10/13 00:42:40;;;;;;;;;;;13.90;99.90;14.10;100134.00;;;;348811;27;83230;-94
2022/10/13 00:42:52;;;;;;;;;;;13.80;99.90;14.10;100136.00;;;;345652;28;92368;-94
2022/10/13 00:43:08;;;;;;;;;;;13.80;99.90;14.10;100132.00;;;;346159;28;82357;-94
2022/10/13 00:43:21;;;;;;;;;;;13.80;99.90;14.10;100134.00;;;;344218;28;92314;-94
2022/10/13 00:43:59;;;;;;;;;;;13.80;99.90;14.10;100137.00;;;;347556;28;83299;-94
2022/10/13 00:44:49;;;;;;;;;;;13.80;99.90;14.10;100144.00;;;;345795;28;91818;-95
2022/10/13 00:45:01;;;;;;;;;;;13.80;99.90;14.10;100141.00;;;;345760;28;83456;-94
2022/10/13 00:45:19;;;;;;;;;;;13.80;99.90;14.10;100142.00;;;;344404;28;90502;-94
2022/10/13 00:45:31;;;;;;;;;;;13.80;99.90;14.10;100140.00;;;;346290;28;82452;-94
2022/10/13 00:45:43;;;;;;;;;;;13.80;99.90;14.10;100141.00;;;;345869;28;92371;-94
2022/10/13 00:45:55;;;;;;;;;;;13.80;99.90;14.00;100139.00;;;;344957;28;83535;-94
2022/10/13 00:46:07;;;;;;;;;;;13.80;99.90;14.00;100142.00;;;;348630;27;90446;-95
2022/10/13 00:46:20;;;;;;;;;;;13.80;99.90;14.00;100139.00;;;;345002;28;82445;-94
2022/10/13 00:46:34;;;;;;;;;;;13.80;99.90;14.00;100130.00;;;;345967;28;91014;-94
2022/10/13 00:46:45;;;;;;;;;;;13.80;99.90;14.00;100134.00;;;;344841;28;83485;-95
2022/10/13 00:46:57;;;;;;;;;;;13.80;99.90;14.00;100135.00;;;;344472;28;91676;-94
2022/10/13 00:47:09;;;;;;;;;;;13.80;99.90;14.00;100137.00;;;;346429;28;82469;-95
2022/10/13 00:47:21;;;;;;;;;;;13.80;99.90;14.00;100139.00;;;;347487;27;90728;-94
2022/10/13 00:47:39;;;;;;;;;;;13.80;99.90;14.00;100136.00;;;;344957;28;82442;-94
2022/10/13 00:47:54;;;;;;;;;;;13.80;99.90;14.00;100142.00;;;;344757;28;91109;-94
2022/10/13 00:48:06;;;;;;;;;;;13.80;99.90;14.00;100139.00;;;;346345;28;82507;-94
2022/10/13 00:48:20;;;;;;;;;;;13.80;99.90;14.00;100142.00;;;;344799;28;91963;-94
2022/10/13 00:48:31;;;;;;;;;;;13.80;99.90;14.00;100137.00;;;;347878;28;82517;-94
2022/10/13 00:48:43;;;;;;;;;;;13.80;99.90;14.00;100137.00;;;;346013;28;91579;-93
2022/10/13 00:49:05;;;;;;;;;;;13.80;99.90;14.00;100139.00;;;;343928;28;82456;-93
2022/10/13 00:49:17;;;;;;;;;;;13.80;99.90;14.00;100140.00;;;;345925;28;90652;-94
2022/10/13 00:49:29;;;;;;;;;;;13.80;99.90;14.00;100137.00;;;;348049;28;82518;-95
2022/10/13 00:49:40;;;;;;;;;;;13.80;99.90;13.90;100141.00;;;;346585;28;87406;-94
2022/10/13 00:49:52;;;;;;;;;;;13.80;99.90;13.90;100141.00;;;;346640;28;82471;-94
2022/10/13 00:50:06;;;;;;;;;;;13.80;99.90;14.00;100147.00;;;;343159;28;90495;-94
2022/10/13 00:50:21;;;;;;;;;;;13.80;99.90;14.00;100136.00;;;;346379;28;82560;-94
2022/10/13 00:50:35;;;;;;;;;;;13.80;99.90;14.00;100141.00;;;;344803;28;91839;-93
2022/10/13 00:50:47;;;;;;;;;;;13.80;99.90;14.00;100147.00;;;;343254;28;82559;-93
2022/10/13 00:50:59;;;;;;;;;;;13.80;99.90;14.00;100142.00;;;;346746;28;91388;-95
2022/10/13 00:51:11;;;;;;;;;;;13.80;99.90;14.00;100142.00;;;;348644;28;82568;-94
2022/10/13 00:51:25;;;;;;;;;;;13.80;99.90;14.00;100147.00;;;;343888;28;90208;-94
2022/10/13 00:51:39;;;;;;;;;;;13.80;99.90;14.00;100143.00;;;;348631;28;82595;-94
2022/10/13 00:51:51;;;;;;;;;;;13.70;99.90;14.00;100139.00;;;;345484;28;90260;-94
2022/10/13 00:52:03;;;;;;;;;;;13.80;99.90;14.00;100148.00;;;;345850;28;82469;-95
2022/10/13 00:52:15;;;;;;;;;;;13.80;99.90;14.00;100142.00;;;;343624;28;90550;-94
2022/10/13 00:52:27;;;;;;;;;;;13.80;99.90;14.00;100142.00;;;;344061;28;82456;-94
2022/10/13 00:52:39;;;;;;;;;;;13.70;99.90;14.00;100143.00;;;;345977;28;89842;-94
2022/10/13 00:52:51;;;;;;;;;;;13.70;99.90;14.00;100144.00;;;;343473;28;83398;-94
2022/10/13 00:53:04;;;;;;;;;;;13.70;99.90;14.00;100143.00;;;;345723;28;92563;-94
2022/10/13 00:53:17;;;;;;;;;;;13.80;99.90;14.00;100140.00;;;;344727;28;82368;-94
2022/10/13 00:53:30;;;;;;;;;;;13.80;99.90;14.00;100140.00;;;;342871;28;91316;-93
2022/10/13 00:53:42;;;;;;;;;;;13.70;99.90;14.00;100142.00;;;;339265;28;82594;-94
2022/10/13 00:53:55;;;;;;;;;;;13.70;99.90;14.00;100144.00;;;;342939;28;90942;-94
2022/10/13 00:54:08;;;;;;;;;;;13.70;99.90;14.00;100145.00;;;;343212;28;83599;-94
2022/10/13 00:54:21;;;;;;;;;;;13.70;99.90;14.00;100141.00;;;;345552;28;91409;-94
2022/10/13 00:54:33;;;;;;;;;;;13.70;99.90;14.00;100135.00;;;;344734;28;83302;-94
2022/10/13 00:54:44;;;;;;;;;;;13.70;99.90;14.10;100144.00;;;;344172;28;90089;-94
2022/10/13 00:54:57;;;;;;;;;;;13.80;99.90;14.10;100132.00;;;;346096;28;82517;-94
2022/10/13 00:55:10;;;;;;;;;;;13.80;99.90;14.10;100133.00;;;;342846;28;92780;-94
2022/10/13 00:55:23;;;;;;;;;;;13.70;99.90;14.10;100138.00;;;;344572;28;83477;-94
2022/10/13 00:55:36;;;;;;;;;;;13.70;99.90;14.10;100131.00;;;;344260;28;91721;-94
2022/10/13 00:55:47;;;;;;;;;;;13.80;99.90;14.20;100137.00;;;;346253;28;82533;-95
2022/10/13 00:55:59;;;;;;;;;;;13.80;99.90;14.20;100135.00;;;;344110;28;91636;-94
2022/10/13 00:56:11;;;;;;;;;;;13.80;99.90;14.10;100125.00;;;;343441;28;83429;-95
2022/10/13 00:56:23;;;;;;;;;;;13.80;99.90;14.10;100137.00;;;;344121;28;91703;-94
2022/10/13 00:56:34;;;;;;;;;;;13.80;99.90;14.10;100142.00;;;;346049;28;83243;-94
2022/10/13 00:56:46;;;;;;;;;;;13.80;99.90;14.10;100129.00;;;;341633;28;91473;-94
2022/10/13 00:56:58;;;;;;;;;;;13.80;99.90;14.10;100135.00;;;;344809;28;83282;-94
2022/10/13 00:57:10;;;;;;;;;;;13.80;99.90;14.10;100137.00;;;;345721;28;91736;-94
2022/10/13 00:57:22;;;;;;;;;;;13.80;99.90;14.00;100137.00;;;;347364;27;83532;-94
2022/10/13 00:57:33;;;;;;;;;;;13.80;99.90;14.00;100129.00;;;;344157;28;90800;-95
2022/10/13 00:57:45;;;;;;;;;;;13.80;99.90;13.90;100130.00;;;;344786;28;82519;-95
2022/10/13 00:58:00;;;;;;;;;;;13.80;99.90;13.90;100133.00;;;;345546;28;91583;-95
2022/10/13 00:58:16;;;;;;;;;;;13.80;99.90;14.00;100135.00;;;;345647;28;83489;-94
2022/10/13 00:58:31;;;;;;;;;;;13.80;99.90;14.00;100132.00;;;;342788;28;89399;-94
2022/10/13 00:58:44;;;;;;;;;;;13.80;99.90;14.00;100147.00;;;;344604;28;83395;-94
2022/10/13 00:58:56;;;;;;;;;;;13.80;99.90;14.10;100133.00;;;;346842;28;91148;-94
2022/10/13 00:59:12;;;;;;;;;;;13.80;99.90;14.10;100136.00;;;;344680;28;83414;-94
2022/10/13 00:59:27;;;;;;;;;;;13.80;99.90;14.00;100132.00;;;;341356;28;90795;-95
2022/10/13 00:59:39;;;;;;;;;;;13.80;99.90;13.90;100142.00;;;;343386;28;83483;-95
2022/10/13 00:59:51;;;;;;;;;;;13.80;99.90;13.90;100137.00;;;;340118;28;91435;-94
2022/10/13 01:00:04;;;;;;;;;;;13.80;99.90;14.00;100139.00;;;;337721;28;83511;-94
2022/10/13 01:00:16;;;;;;;;;;;13.80;99.90;14.10;100129.00;;;;344299;28;91407;-94
2022/10/13 01:00:29;;;;;;;;;;;13.80;99.90;14.10;100133.00;;;;344800;28;83358;-94
2022/10/13 01:00:48;;;;;;;;;;;13.80;99.90;14.10;100130.00;;;;345472;28;89639;-94
2022/10/13 01:01:00;;;;;;;;;;;13.80;99.90;14.10;100137.00;;;;344691;28;83437;-94
2022/10/13 01:01:12;;;;;;;;;;;13.80;99.90;14.00;100136.00;;;;345882;28;90059;-94
2022/10/13 01:01:23;;;;;;;;;;;13.80;99.90;14.00;100135.00;;;;347191;28;82582;-94
2022/10/13 01:01:35;;;;;;;;;;;13.80;99.90;14.00;100135.00;;;;344226;28;92752;-94
2022/10/13 01:01:48;;;;;;;;;;;13.80;99.90;13.90;100146.00;;;;343396;28;83616;-94
2022/10/13 01:02:00;;;;;;;;;;;13.80;99.90;13.90;100136.00;;;;342976;28;91601;-94
2022/10/13 01:02:12;;;;;;;;;;;13.80;99.90;13.90;100141.00;;;;346112;28;83354;-94